Wolf 59 — CGBP — position and weather

sailwx.info

Track history (hours):
 
Tides and Currents Weather Stations Pressure Air Temp Water Temp Dewpoint Dewpoint Depression Visibility Wind Speed Wind Dir Waves Ship Positions

Wolf 59

Last reported at 2014-Oct-31 16:32 UTC. Time now 2014-Oct-31 16:39 UTC.
Position N 49°23' W 123°47'.

Length 33 m; draft 2.6 m.

Type: Military. MMSI: 316011515.

Date/timePositionNaut miles runAvg speedWind from/ knotsBaromVisibWave heightAir tempDewpointWater temp
2014-Oct-31 16:32N 49°23' W 123°47'6 6.0
2014-Oct-31 15:32N 49°20' W 123°55'9 7.7
2014-Oct-31 14:24N 49°11' W 123°54'1 0.2
2014-Oct-31 06:21N 49°10' W 123°56'0 0.0
2014-Oct-31 05:32N 49°10' W 123°56'0 0.0
2014-Oct-31 04:33N 49°10' W 123°56'0 0.0
2014-Oct-31 03:33N 49°10' W 123°56'0 0.0
2014-Oct-31 02:30N 49°10' W 123°56'0 0.0
2014-Oct-31 01:06N 49°10' W 123°56'0 0.0
2014-Oct-30 23:26N 49°10' W 123°56'0 0.0
2014-Oct-30 22:27N 49°10' W 123°56'0 0.0
2014-Oct-30 21:32N 49°10' W 123°56'0 0.0
2014-Oct-30 20:31N 49°10' W 123°56'4 4.2
2014-Oct-30 19:34N 49°14' W 123°54'5 2.2
2014-Oct-30 17:08N 49°18' W 123°60'5 8.3
2014-Oct-30 16:33N 49°18' W 123°52'7 6.7
2014-Oct-30 15:33N 49°16' W 123°42'9 8.9
2014-Oct-30 14:33N 49°10' W 123°33'1010.5
2014-Oct-30 13:33N 49°19' W 123°25'9 9.3
2014-Oct-30 12:33N 49°25' W 123°15'7 6.8
2014-Oct-30 11:33N 49°24' W 123°25'4 4.0
2014-Oct-30 10:33N 49°22' W 123°31'6 5.6
2014-Oct-30 09:32N 49°25' W 123°23'8 4.2
2014-Oct-30 07:34N 49°32' W 123°16'6 6.0
2014-Oct-30 06:33N 49°26' W 123°15'7 6.6
2014-Oct-30 05:33N 49°20' W 123°18'8 7.8
2014-Oct-30 04:33N 49°18' W 123°07'0 0.0
2014-Oct-30 03:33N 49°18' W 123°07'0 0.0
2014-Oct-30 02:33N 49°18' W 123°07'5 4.8
2014-Oct-30 01:33N 49°19' W 123°14'2219.3
2014-Oct-30 00:25N 49°20' W 123°48'1719.4
2014-Oct-29 23:34N 49°23' W 124°13'15 1.0
2014-Oct-29 09:10N 49°34' W 124°29'5 8.4
2014-Oct-29 08:33N 49°29' W 124°25'9 8.5
2014-Oct-29 07:33N 49°25' W 124°14'8 8.4
2014-Oct-29 06:34N 49°21' W 124°03'8 8.4
2014-Oct-29 05:33N 49°16' W 123°52'8 8.2
2014-Oct-29 04:33N 49°12' W 123°41'8 7.8
2014-Oct-29 03:33N 49°05' W 123°35'4 3.8
2014-Oct-29 02:27N 49°02' W 123°40'5 6.0
2014-Oct-29 01:33N 48°57' W 123°42'1110.7
2014-Oct-29 00:33N 48°48' W 123°33'7 6.8
2014-Oct-28 23:33N 48°43' W 123°27'1010.0
2014-Oct-28 22:33N 48°35' W 123°18'10 9.9
2014-Oct-28 21:33N 48°25' W 123°17'7 6.5
2014-Oct-28 20:33N 48°25' W 123°27'1 1.2
2014-Oct-28 19:33N 48°26' W 123°26'0 0.0
2014-Oct-28 18:33N 48°26' W 123°26'0 0.0
2014-Oct-28 17:33N 48°26' W 123°26'0 0.0
2014-Oct-28 16:33N 48°26' W 123°26'0 0.1
2014-Oct-28 15:18N 48°26' W 123°26'0 0.0
2014-Oct-28 14:30N 48°26' W 123°26'0 0.0
2014-Oct-28 13:19N 48°26' W 123°26'0 0.0
2014-Oct-28 12:28N 48°26' W 123°26'0 0.0
2014-Oct-28 11:31N 48°26' W 123°26'0 0.0
2014-Oct-28 10:25N 48°26' W 123°26'0 0.0
2014-Oct-28 09:28N 48°26' W 123°26'0 0.0
2014-Oct-28 08:31N 48°26' W 123°26'0 0.0
2014-Oct-28 07:25N 48°26' W 123°26'0 0.0
2014-Oct-28 06:28N 48°26' W 123°26'0 0.0
2014-Oct-28 05:31N 48°26' W 123°26'0 0.0
2014-Oct-28 04:28N 48°26' W 123°26'0 0.0
2014-Oct-28 03:31N 48°26' W 123°26'0 0.0
2014-Oct-28 02:28N 48°26' W 123°26'0 0.0
2014-Oct-27 21:07N 48°26' W 123°26'0 0.0
2014-Oct-27 20:25N 48°26' W 123°26'0 0.0
2014-Oct-27 19:25N 48°26' W 123°26'0 0.0
2014-Oct-27 18:19N 48°26' W 123°26'0 0.0
2014-Oct-27 17:19N 48°26' W 123°26'0 0.0
2014-Oct-27 12:22N 48°26' W 123°26'0 0.0
2014-Oct-27 09:19N 48°26' W 123°26'0 0.0
2014-Oct-27 08:04N 48°26' W 123°26'0 0.0
2014-Oct-27 07:25N 48°26' W 123°26'0 0.0
2014-Oct-27 06:28N 48°26' W 123°26'0 0.0
2014-Oct-27 05:31N 48°26' W 123°26'0 0.0
2014-Oct-27 04:28N 48°26' W 123°26'0 0.0
2014-Oct-27 03:10N 48°26' W 123°26'0 0.0
2014-Oct-27 02:25N 48°26' W 123°26'0 0.0
2014-Oct-27 01:16N 48°26' W 123°26'0 0.0
2014-Oct-26 20:31N 48°26' W 123°26'0 0.0
2014-Oct-26 19:25N 48°26' W 123°26'0 0.0
2014-Oct-26 18:31N 48°26' W 123°26'0 0.0
2014-Oct-26 16:31N 48°26' W 123°26'0 0.0
2014-Oct-26 15:28N 48°26' W 123°26'0 0.0
2014-Oct-26 14:19N 48°26' W 123°26'0 0.0
2014-Oct-26 13:31N 48°26' W 123°26'0 0.0
2014-Oct-26 12:31N 48°26' W 123°26'0 0.0
2014-Oct-26 11:22N 48°26' W 123°26'0 0.0
2014-Oct-26 09:28N 48°26' W 123°26'0 0.0
2014-Oct-26 08:31N 48°26' W 123°26'0 0.0
2014-Oct-26 07:22N 48°26' W 123°26'0 0.0
2014-Oct-26 06:13N 48°26' W 123°26'0 0.0
2014-Oct-26 05:25N 48°26' W 123°26'0 0.0
2014-Oct-26 04:28N 48°26' W 123°26'0 0.0
2014-Oct-26 03:31N 48°26' W 123°26'0 0.0
2014-Oct-26 02:28N 48°26' W 123°26'0 0.0
2014-Oct-26 01:31N 48°26' W 123°26'0 0.0
2014-Oct-26 00:31N 48°26' W 123°26'0 0.0
2014-Oct-25 23:19N 48°26' W 123°26'0 0.0
2014-Oct-25 22:31N 48°26' W 123°26'0 0.0
2014-Oct-25 21:10N 48°26' W 123°26'0 0.0
2014-Oct-25 20:28N 48°26' W 123°26'0 0.0
2014-Oct-25 19:13N 48°26' W 123°26'0 0.0
2014-Oct-25 18:31N 48°26' W 123°26'0 0.0
2014-Oct-25 17:07N 48°26' W 123°26'0 0.0
2014-Oct-25 16:22N 48°26' W 123°26'0 0.0
2014-Oct-25 15:31N 48°26' W 123°26'0 0.0
2014-Oct-25 14:22N 48°26' W 123°26'0 0.0
2014-Oct-25 12:28N 48°26' W 123°26'0 0.0
2014-Oct-25 11:31N 48°26' W 123°26'0 0.0
2014-Oct-25 10:31N 48°26' W 123°26'0 0.0
2014-Oct-25 08:22N 48°26' W 123°26'0 0.0
2014-Oct-24 23:31N 48°26' W 123°26'0 0.0
2014-Oct-24 22:19N 48°26' W 123°26'0 0.0
2014-Oct-24 21:13N 48°26' W 123°26'0 0.0
2014-Oct-24 20:25N 48°26' W 123°26'0 0.0
2014-Oct-24 16:22N 48°26' W 123°26'0 0.0
2014-Oct-24 15:31N 48°26' W 123°26'0 0.0
2014-Oct-24 13:31N 48°26' W 123°26'0 0.0
2014-Oct-24 12:31N 48°26' W 123°26'0 0.0
2014-Oct-24 11:31N 48°26' W 123°26'0 0.0
2014-Oct-24 10:31N 48°26' W 123°26'0 0.0
2014-Oct-24 09:10N 48°26' W 123°26'0 0.0
2014-Oct-24 07:25N 48°26' W 123°26'0 0.0
2014-Oct-24 06:31N 48°26' W 123°26'0 0.0
2014-Oct-24 05:07N 48°26' W 123°26'0 0.0
2014-Oct-24 04:25N 48°26' W 123°26'0 0.0
2014-Oct-24 03:19N 48°26' W 123°26'0 0.0
2014-Oct-24 02:25N 48°26' W 123°26'0 0.0
2014-Oct-24 01:31N 48°26' W 123°26'0 0.0
2014-Oct-24 00:25N 48°26' W 123°26'0 0.0
2014-Oct-23 23:19N 48°26' W 123°26'0 0.0
2014-Oct-23 22:07N 48°26' W 123°26'0 0.0
2014-Oct-23 21:22N 48°26' W 123°26'0 0.0
2014-Oct-23 20:28N 48°26' W 123°26'0 0.0
2014-Oct-23 19:19N 48°26' W 123°26'0 0.0
2014-Oct-23 16:25N 48°26' W 123°26'0 0.0
2014-Oct-23 09:07N 48°26' W 123°26'0 0.0
2014-Oct-23 08:10N 48°26' W 123°26'0 0.0
2014-Oct-23 07:25N 48°26' W 123°26'0 0.0
2014-Oct-23 06:31N 48°26' W 123°26'0 0.0
2014-Oct-23 05:31N 48°26' W 123°26'0 0.0
2014-Oct-23 04:31N 48°26' W 123°26'0 0.0
2014-Oct-23 03:28N 48°26' W 123°26'0 0.2
2014-Oct-23 02:32N 48°26' W 123°26'9 9.3
2014-Oct-23 01:33N 48°25' W 123°13'1515.0
2014-Oct-23 00:33N 48°40' W 123°15'10 9.9
2014-Oct-22 23:33N 48°49' W 123°21'1414.1
2014-Oct-22 22:34N 49°02' W 123°28'1413.7
2014-Oct-22 21:33N 49°12' W 123°43'1515.0
2014-Oct-22 20:33N 49°01' W 123°27'8 8.1
2014-Oct-22 19:33N 48°55' W 123°19'4 4.0
2014-Oct-22 18:33N 48°52' W 123°24'3 3.4
2014-Oct-22 17:32N 48°55' W 123°27'7 6.5
2014-Oct-22 16:31N 48°54' W 123°37'3 2.8
2014-Oct-22 15:33N 48°56' W 123°41'1 0.4
2014-Oct-22 11:29N 48°56' W 123°43'0 0.0
2014-Oct-22 10:33N 48°56' W 123°43'0 0.0
2014-Oct-22 09:33N 48°56' W 123°43'0 0.0
2014-Oct-22 08:33N 48°56' W 123°43'0 0.0
2014-Oct-22 07:33N 48°56' W 123°43'0 0.0
2014-Oct-22 06:33N 48°56' W 123°43'0 0.0
2014-Oct-22 05:33N 48°56' W 123°43'0 0.0
2014-Oct-22 04:32N 48°56' W 123°43'0 0.0
2014-Oct-22 03:32N 48°56' W 123°43'0 0.0
2014-Oct-22 02:32N 48°56' W 123°43'1 1.3
2014-Oct-22 01:33N 48°57' W 123°43'7 7.0
2014-Oct-22 00:33N 48°56' W 123°33'1211.9
2014-Oct-21 23:34N 48°47' W 123°20'1818.0
2014-Oct-21 22:34N 48°30' W 123°11'1211.2
2014-Oct-21 21:32N 48°26' W 123°27'0 0.5
2014-Oct-21 20:34N 48°25' W 123°26'1111.5
2014-Oct-21 19:34N 48°33' W 123°13'1716.6
2014-Oct-21 18:33N 48°49' W 123°20'7 6.5
2014-Oct-21 17:31N 48°43' W 123°26'7 7.1
2014-Oct-21 16:33N 48°37' W 123°30'  
Track history (hours):
 
Tides and Currents Weather Stations Pressure Air Temp Water Temp Dewpoint Dewpoint Depression Visibility Wind Speed Wind Dir Waves Ship Positions

Wolf 59

Last reported at 2014-Oct-31 16:32 UTC. Time now 2014-Oct-31 16:39 UTC.
Position N 49°23' W 123°47'.

Length 33 m; draft 2.6 m.

Type: Military. MMSI: 316011515.

Date/timePositionNaut miles runAvg speedWind from/ knotsBaromVisibWave heightAir tempDewpointWater temp
2014-Oct-31 16:32N 49°23' W 123°47'6 6.0
2014-Oct-31 15:32N 49°20' W 123°55'9 7.7
2014-Oct-31 14:24N 49°11' W 123°54'1 0.2
2014-Oct-31 06:21N 49°10' W 123°56'0 0.0
2014-Oct-31 05:32N 49°10' W 123°56'0 0.0
2014-Oct-31 04:33N 49°10' W 123°56'0 0.0
2014-Oct-31 03:33N 49°10' W 123°56'0 0.0
2014-Oct-31 02:30N 49°10' W 123°56'0 0.0
2014-Oct-31 01:06N 49°10' W 123°56'0 0.0
2014-Oct-30 23:26N 49°10' W 123°56'0 0.0
2014-Oct-30 22:27N 49°10' W 123°56'0 0.0
2014-Oct-30 21:32N 49°10' W 123°56'0 0.0
2014-Oct-30 20:31N 49°10' W 123°56'4 4.2
2014-Oct-30 19:34N 49°14' W 123°54'5 2.2
2014-Oct-30 17:08N 49°18' W 123°60'5 8.3
2014-Oct-30 16:33N 49°18' W 123°52'7 6.7
2014-Oct-30 15:33N 49°16' W 123°42'9 8.9
2014-Oct-30 14:33N 49°10' W 123°33'1010.5
2014-Oct-30 13:33N 49°19' W 123°25'9 9.3
2014-Oct-30 12:33N 49°25' W 123°15'7 6.8
2014-Oct-30 11:33N 49°24' W 123°25'4 4.0
2014-Oct-30 10:33N 49°22' W 123°31'6 5.6
2014-Oct-30 09:32N 49°25' W 123°23'8 4.2
2014-Oct-30 07:34N 49°32' W 123°16'6 6.0
2014-Oct-30 06:33N 49°26' W 123°15'7 6.6
2014-Oct-30 05:33N 49°20' W 123°18'8 7.8
2014-Oct-30 04:33N 49°18' W 123°07'0 0.0
2014-Oct-30 03:33N 49°18' W 123°07'0 0.0
2014-Oct-30 02:33N 49°18' W 123°07'5 4.8
2014-Oct-30 01:33N 49°19' W 123°14'2219.3
2014-Oct-30 00:25N 49°20' W 123°48'1719.4
2014-Oct-29 23:34N 49°23' W 124°13'15 1.0
2014-Oct-29 09:10N 49°34' W 124°29'5 8.4
2014-Oct-29 08:33N 49°29' W 124°25'9 8.5
2014-Oct-29 07:33N 49°25' W 124°14'8 8.4
2014-Oct-29 06:34N 49°21' W 124°03'8 8.4
2014-Oct-29 05:33N 49°16' W 123°52'8 8.2
2014-Oct-29 04:33N 49°12' W 123°41'8 7.8
2014-Oct-29 03:33N 49°05' W 123°35'4 3.8
2014-Oct-29 02:27N 49°02' W 123°40'5 6.0
2014-Oct-29 01:33N 48°57' W 123°42'1110.7
2014-Oct-29 00:33N 48°48' W 123°33'7 6.8
2014-Oct-28 23:33N 48°43' W 123°27'1010.0
2014-Oct-28 22:33N 48°35' W 123°18'10 9.9
2014-Oct-28 21:33N 48°25' W 123°17'7 6.5
2014-Oct-28 20:33N 48°25' W 123°27'1 1.2
2014-Oct-28 19:33N 48°26' W 123°26'0 0.0
2014-Oct-28 18:33N 48°26' W 123°26'0 0.0
2014-Oct-28 17:33N 48°26' W 123°26'0 0.0
2014-Oct-28 16:33N 48°26' W 123°26'0 0.1
2014-Oct-28 15:18N 48°26' W 123°26'0 0.0
2014-Oct-28 14:30N 48°26' W 123°26'0 0.0
2014-Oct-28 13:19N 48°26' W 123°26'0 0.0
2014-Oct-28 12:28N 48°26' W 123°26'0 0.0
2014-Oct-28 11:31N 48°26' W 123°26'0 0.0
2014-Oct-28 10:25N 48°26' W 123°26'0 0.0
2014-Oct-28 09:28N 48°26' W 123°26'0 0.0
2014-Oct-28 08:31N 48°26' W 123°26'0 0.0
2014-Oct-28 07:25N 48°26' W 123°26'0 0.0
2014-Oct-28 06:28N 48°26' W 123°26'0 0.0
2014-Oct-28 05:31N 48°26' W 123°26'0 0.0
2014-Oct-28 04:28N 48°26' W 123°26'0 0.0
2014-Oct-28 03:31N 48°26' W 123°26'0 0.0
2014-Oct-28 02:28N 48°26' W 123°26'0 0.0
2014-Oct-27 21:07N 48°26' W 123°26'0 0.0
2014-Oct-27 20:25N 48°26' W 123°26'0 0.0
2014-Oct-27 19:25N 48°26' W 123°26'0 0.0
2014-Oct-27 18:19N 48°26' W 123°26'0 0.0
2014-Oct-27 17:19N 48°26' W 123°26'0 0.0
2014-Oct-27 12:22N 48°26' W 123°26'0 0.0
2014-Oct-27 09:19N 48°26' W 123°26'0 0.0
2014-Oct-27 08:04N 48°26' W 123°26'0 0.0
2014-Oct-27 07:25N 48°26' W 123°26'0 0.0
2014-Oct-27 06:28N 48°26' W 123°26'0 0.0
2014-Oct-27 05:31N 48°26' W 123°26'0 0.0
2014-Oct-27 04:28N 48°26' W 123°26'0 0.0
2014-Oct-27 03:10N 48°26' W 123°26'0 0.0
2014-Oct-27 02:25N 48°26' W 123°26'0 0.0
2014-Oct-27 01:16N 48°26' W 123°26'0 0.0
2014-Oct-26 20:31N 48°26' W 123°26'0 0.0
2014-Oct-26 19:25N 48°26' W 123°26'0 0.0
2014-Oct-26 18:31N 48°26' W 123°26'0 0.0
2014-Oct-26 16:31N 48°26' W 123°26'0 0.0
2014-Oct-26 15:28N 48°26' W 123°26'0 0.0
2014-Oct-26 14:19N 48°26' W 123°26'0 0.0
2014-Oct-26 13:31N 48°26' W 123°26'0 0.0
2014-Oct-26 12:31N 48°26' W 123°26'0 0.0
2014-Oct-26 11:22N 48°26' W 123°26'0 0.0
2014-Oct-26 09:28N 48°26' W 123°26'0 0.0
2014-Oct-26 08:31N 48°26' W 123°26'0 0.0
2014-Oct-26 07:22N 48°26' W 123°26'0 0.0
2014-Oct-26 06:13N 48°26' W 123°26'0 0.0
2014-Oct-26 05:25N 48°26' W 123°26'0 0.0
2014-Oct-26 04:28N 48°26' W 123°26'0 0.0
2014-Oct-26 03:31N 48°26' W 123°26'0 0.0
2014-Oct-26 02:28N 48°26' W 123°26'0 0.0
2014-Oct-26 01:31N 48°26' W 123°26'0 0.0
2014-Oct-26 00:31N 48°26' W 123°26'0 0.0
2014-Oct-25 23:19N 48°26' W 123°26'0 0.0
2014-Oct-25 22:31N 48°26' W 123°26'0 0.0
2014-Oct-25 21:10N 48°26' W 123°26'0 0.0
2014-Oct-25 20:28N 48°26' W 123°26'0 0.0
2014-Oct-25 19:13N 48°26' W 123°26'0 0.0
2014-Oct-25 18:31N 48°26' W 123°26'0 0.0
2014-Oct-25 17:07N 48°26' W 123°26'0 0.0
2014-Oct-25 16:22N 48°26' W 123°26'0 0.0
2014-Oct-25 15:31N 48°26' W 123°26'0 0.0
2014-Oct-25 14:22N 48°26' W 123°26'0 0.0
2014-Oct-25 12:28N 48°26' W 123°26'0 0.0
2014-Oct-25 11:31N 48°26' W 123°26'0 0.0
2014-Oct-25 10:31N 48°26' W 123°26'0 0.0
2014-Oct-25 08:22N 48°26' W 123°26'0 0.0
2014-Oct-24 23:31N 48°26' W 123°26'0 0.0
2014-Oct-24 22:19N 48°26' W 123°26'0 0.0
2014-Oct-24 21:13N 48°26' W 123°26'0 0.0
2014-Oct-24 20:25N 48°26' W 123°26'0 0.0
2014-Oct-24 16:22N 48°26' W 123°26'0 0.0
2014-Oct-24 15:31N 48°26' W 123°26'0 0.0
2014-Oct-24 13:31N 48°26' W 123°26'0 0.0
2014-Oct-24 12:31N 48°26' W 123°26'0 0.0
2014-Oct-24 11:31N 48°26' W 123°26'0 0.0
2014-Oct-24 10:31N 48°26' W 123°26'0 0.0
2014-Oct-24 09:10N 48°26' W 123°26'0 0.0
2014-Oct-24 07:25N 48°26' W 123°26'0 0.0
2014-Oct-24 06:31N 48°26' W 123°26'0 0.0
2014-Oct-24 05:07N 48°26' W 123°26'0 0.0
2014-Oct-24 04:25N 48°26' W 123°26'0 0.0
2014-Oct-24 03:19N 48°26' W 123°26'0 0.0
2014-Oct-24 02:25N 48°26' W 123°26'0 0.0
2014-Oct-24 01:31N 48°26' W 123°26'0 0.0
2014-Oct-24 00:25N 48°26' W 123°26'0 0.0
2014-Oct-23 23:19N 48°26' W 123°26'0 0.0
2014-Oct-23 22:07N 48°26' W 123°26'0 0.0
2014-Oct-23 21:22N 48°26' W 123°26'0 0.0
2014-Oct-23 20:28N 48°26' W 123°26'0 0.0
2014-Oct-23 19:19N 48°26' W 123°26'0 0.0
2014-Oct-23 16:25N 48°26' W 123°26'0 0.0
2014-Oct-23 09:07N 48°26' W 123°26'0 0.0
2014-Oct-23 08:10N 48°26' W 123°26'0 0.0
2014-Oct-23 07:25N 48°26' W 123°26'0 0.0
2014-Oct-23 06:31N 48°26' W 123°26'0 0.0
2014-Oct-23 05:31N 48°26' W 123°26'0 0.0
2014-Oct-23 04:31N 48°26' W 123°26'0 0.0
2014-Oct-23 03:28N 48°26' W 123°26'0 0.2
2014-Oct-23 02:32N 48°26' W 123°26'9 9.3
2014-Oct-23 01:33N 48°25' W 123°13'1515.0
2014-Oct-23 00:33N 48°40' W 123°15'10 9.9
2014-Oct-22 23:33N 48°49' W 123°21'1414.1
2014-Oct-22 22:34N 49°02' W 123°28'1413.7
2014-Oct-22 21:33N 49°12' W 123°43'1515.0
2014-Oct-22 20:33N 49°01' W 123°27'8 8.1
2014-Oct-22 19:33N 48°55' W 123°19'4 4.0
2014-Oct-22 18:33N 48°52' W 123°24'3 3.4
2014-Oct-22 17:32N 48°55' W 123°27'7 6.5
2014-Oct-22 16:31N 48°54' W 123°37'3 2.8
2014-Oct-22 15:33N 48°56' W 123°41'1 0.4
2014-Oct-22 11:29N 48°56' W 123°43'0 0.0
2014-Oct-22 10:33N 48°56' W 123°43'0 0.0
2014-Oct-22 09:33N 48°56' W 123°43'0 0.0
2014-Oct-22 08:33N 48°56' W 123°43'0 0.0
2014-Oct-22 07:33N 48°56' W 123°43'0 0.0
2014-Oct-22 06:33N 48°56' W 123°43'0 0.0
2014-Oct-22 05:33N 48°56' W 123°43'0 0.0
2014-Oct-22 04:32N 48°56' W 123°43'0 0.0
2014-Oct-22 03:32N 48°56' W 123°43'0 0.0
2014-Oct-22 02:32N 48°56' W 123°43'1 1.3
2014-Oct-22 01:33N 48°57' W 123°43'7 7.0
2014-Oct-22 00:33N 48°56' W 123°33'1211.9
2014-Oct-21 23:34N 48°47' W 123°20'1818.0
2014-Oct-21 22:34N 48°30' W 123°11'1211.2
2014-Oct-21 21:32N 48°26' W 123°27'0 0.5
2014-Oct-21 20:34N 48°25' W 123°26'1111.5
2014-Oct-21 19:34N 48°33' W 123°13'1716.6
2014-Oct-21 18:33N 48°49' W 123°20'7 6.5
2014-Oct-21 17:31N 48°43' W 123°26'7 7.1
2014-Oct-21 16:33N 48°37' W 123°30'  

Dump ship's entire track history